createdAt,value
2022-10-30T00:01:05.991Z,17.73
2022-10-30T00:04:12.649Z,15.83
2022-10-30T00:07:18.766Z,17.07
2022-10-30T00:10:25.424Z,17.10
2022-10-30T00:13:33.135Z,19.80
2022-10-30T00:16:40.072Z,14.30
2022-10-30T00:19:45.443Z,17.00
2022-10-30T00:22:51.155Z,16.37
2022-10-30T00:25:58.301Z,15.08
2022-10-30T00:29:08.465Z,14.50
2022-10-30T00:32:09.059Z,18.02
2022-10-30T00:35:01.795Z,14.58
2022-10-30T00:38:06.505Z,17.25
2022-10-30T00:41:13.789Z,16.40
2022-10-30T00:44:41.102Z,13.75
2022-10-30T00:47:45.338Z,14.93
2022-10-30T00:50:51.345Z,13.90
2022-10-30T00:53:59.254Z,16.45
2022-10-30T00:57:06.909Z,16.05
2022-10-30T01:00:12.109Z,15.90
2022-10-30T01:03:18.383Z,17.57
2022-10-30T01:06:26.166Z,15.03
2022-10-30T01:09:35.480Z,14.83
2022-10-30T01:12:41.325Z,19.27
2022-10-30T01:15:57.203Z,13.70
2022-10-30T01:19:11.226Z,20.62
2022-10-30T01:22:29.489Z,14.68
2022-10-30T01:25:50.306Z,16.35
2022-10-30T01:29:12.692Z,16.80
2022-10-30T01:32:54.893Z,17.80
2022-10-30T01:36:28.205Z,19.05
2022-10-30T01:39:39.103Z,17.27
2022-10-30T01:43:11.734Z,15.65
2022-10-30T01:46:37.602Z,13.85
2022-10-30T01:49:56.429Z,16.65
2022-10-30T01:53:16.863Z,14.18
2022-10-30T01:56:59.905Z,16.73
2022-10-30T02:00:21.663Z,13.40
2022-10-30T02:03:29.201Z,17.57
2022-10-30T02:06:34.515Z,18.48
2022-10-30T02:09:34.668Z,19.98
2022-10-30T02:12:40.547Z,19.32
2022-10-30T02:15:47.697Z,17.12
2022-10-30T02:18:52.789Z,19.30
2022-10-30T02:21:59.144Z,16.40
2022-10-30T02:25:04.310Z,20.00
2022-10-30T02:28:10.203Z,15.15
2022-10-30T02:31:15.198Z,16.20
2022-10-30T02:34:22.901Z,22.87
2022-10-30T02:37:29.343Z,17.85
2022-10-30T02:40:35.402Z,16.17
2022-10-30T02:43:40.970Z,26.30
2022-10-30T02:46:41.604Z,22.13
2022-10-30T02:49:34.352Z,16.73
2022-10-30T02:52:40.427Z,16.87
2022-10-30T02:55:46.108Z,15.10
2022-10-30T02:58:53.076Z,22.75
2022-10-30T03:02:01.412Z,14.85
2022-10-30T03:05:08.368Z,26.37
2022-10-30T03:08:17.429Z,17.35
2022-10-30T03:11:26.898Z,23.52
2022-10-30T03:14:33.369Z,20.43
2022-10-30T03:20:47.315Z,23.38
2022-10-30T03:23:48.212Z,19.25
2022-10-30T03:26:54.354Z,13.45
2022-10-30T03:30:01.406Z,17.32
2022-10-30T03:33:08.501Z,15.72
2022-10-30T03:36:13.595Z,17.12
2022-10-30T03:39:20.024Z,19.37
2022-10-30T03:42:19.287Z,21.62
2022-10-30T03:45:25.534Z,19.42
2022-10-30T03:48:30.497Z,17.12
2022-10-30T03:51:37.105Z,19.62
2022-10-30T03:54:42.724Z,20.88
2022-10-30T03:57:53.666Z,18.40
2022-10-30T04:01:00.789Z,17.27
2022-10-30T04:04:09.039Z,20.45
2022-10-30T04:07:15.969Z,26.17
2022-10-30T04:10:23.875Z,16.27
2022-10-30T04:13:31.794Z,14.15
2022-10-30T04:16:38.077Z,22.02
2022-10-30T04:19:44.644Z,18.07
2022-10-30T04:22:50.729Z,23.87
2022-10-30T04:25:56.923Z,19.20
2022-10-30T04:29:03.508Z,20.57
2022-10-30T04:32:10.570Z,23.77
2022-10-30T04:35:16.720Z,20.50
2022-10-30T04:38:27.743Z,21.93
2022-10-30T04:41:32.670Z,23.12
2022-10-30T04:44:40.453Z,19.92
2022-10-30T04:47:46.097Z,13.75
2022-10-30T04:50:51.834Z,21.57
2022-10-30T04:53:57.588Z,17.80
2022-10-30T04:57:05.049Z,18.02
2022-10-30T05:00:12.170Z,22.87
2022-10-30T05:03:19.119Z,16.80
2022-10-30T05:06:41.811Z,24.52
2022-10-30T05:09:48.372Z,17.45
2022-10-30T05:12:54.369Z,16.20
2022-10-30T05:15:59.997Z,22.15
2022-10-30T05:19:08.266Z,17.07
2022-10-30T05:22:17.713Z,18.37
2022-10-30T05:25:22.979Z,21.10
2022-10-30T05:28:29.065Z,17.90
2022-10-30T05:31:35.867Z,16.85
2022-10-30T05:34:48.944Z,18.67
2022-10-30T05:37:54.718Z,19.60
2022-10-30T05:41:01.746Z,26.85
2022-10-30T05:44:08.166Z,28.12
2022-10-30T05:47:15.582Z,17.82
2022-10-30T05:50:24.298Z,22.20
2022-10-30T05:53:46.815Z,22.35
2022-10-30T05:56:55.273Z,21.82
2022-10-30T06:00:00.716Z,20.80
2022-10-30T06:03:13.935Z,19.70
2022-10-30T06:06:19.397Z,26.60
2022-10-30T06:09:25.658Z,18.35
2022-10-30T06:12:36.107Z,18.23
2022-10-30T06:15:54.546Z,17.15
2022-10-30T06:19:04.761Z,24.75
2022-10-30T06:22:10.968Z,29.90
2022-10-30T06:25:18.603Z,21.97
2022-10-30T06:28:27.282Z,23.12
2022-10-30T06:31:32.866Z,25.95
2022-10-30T06:34:38.546Z,20.05
2022-10-30T06:37:48.797Z,21.97
2022-10-30T06:40:57.665Z,23.45
2022-10-30T06:44:18.782Z,23.50
2022-10-30T06:47:25.036Z,19.90
2022-10-30T06:50:34.252Z,19.20
2022-10-30T06:53:39.954Z,18.85
2022-10-30T06:56:57.147Z,24.85
2022-10-30T07:00:13.567Z,21.37
2022-10-30T07:03:30.309Z,31.77
2022-10-30T07:06:36.969Z,21.62
2022-10-30T07:09:41.718Z,23.07
2022-10-30T07:12:50.568Z,27.27
2022-10-30T07:16:12.333Z,20.60
2022-10-30T07:19:20.068Z,18.73
2022-10-30T07:22:26.969Z,26.57
2022-10-30T07:25:34.570Z,28.65
2022-10-30T07:28:45.330Z,26.48
2022-10-30T07:32:08.574Z,20.10
2022-10-30T07:35:03.748Z,23.55
2022-10-30T07:38:27.640Z,25.95
2022-10-30T07:41:37.029Z,21.93
2022-10-30T07:44:46.837Z,24.23
2022-10-30T07:48:06.538Z,22.62
2022-10-30T07:51:14.230Z,25.90
2022-10-30T07:54:20.927Z,24.63
2022-10-30T07:57:28.486Z,22.67
2022-10-30T08:00:51.752Z,28.00
2022-10-30T08:04:00.900Z,22.80
2022-10-30T08:07:08.595Z,22.98
2022-10-30T08:10:16.020Z,27.77
2022-10-30T08:13:22.428Z,27.82
2022-10-30T08:16:28.777Z,18.92
2022-10-30T08:19:34.979Z,21.82
2022-10-30T08:22:41.931Z,17.92
2022-10-30T08:25:51.101Z,25.92
2022-10-30T08:28:56.878Z,22.82
2022-10-30T08:32:05.309Z,29.05
2022-10-30T08:35:20.220Z,19.25
2022-10-30T08:38:27.037Z,27.17
2022-10-30T08:41:42.033Z,20.05
2022-10-30T08:44:51.163Z,20.23
2022-10-30T08:48:15.475Z,20.12
2022-10-30T08:51:21.611Z,23.75
2022-10-30T08:54:27.299Z,25.17
2022-10-30T08:57:32.263Z,27.05
2022-10-30T09:00:39.402Z,33.30
2022-10-30T09:03:39.231Z,22.05
2022-10-30T09:07:06.394Z,26.93
2022-10-30T09:10:11.807Z,32.33
2022-10-30T09:13:18.042Z,32.63
2022-10-30T09:16:25.671Z,24.02
2022-10-30T09:19:31.917Z,21.70
2022-10-30T09:22:37.518Z,22.87
2022-10-30T09:25:42.877Z,28.60
2022-10-30T09:28:54.152Z,25.43
2022-10-30T09:32:17.826Z,32.20
2022-10-30T09:35:40.479Z,27.07
2022-10-30T09:38:47.742Z,27.52
2022-10-30T09:41:53.787Z,24.43
2022-10-30T09:45:30.283Z,26.77
2022-10-30T09:48:57.227Z,27.48
2022-10-30T09:55:44.988Z,29.67
2022-10-30T09:59:24.139Z,22.67
2022-10-30T10:02:49.504Z,25.00
2022-10-30T10:06:12.858Z,25.08
2022-10-30T10:09:34.619Z,29.05
2022-10-30T10:13:01.115Z,28.52
2022-10-30T10:16:07.764Z,25.35
2022-10-30T10:19:29.339Z,37.25
2022-10-30T10:23:01.911Z,22.37
2022-10-30T10:26:10.084Z,21.95
2022-10-30T10:29:31.086Z,20.82
2022-10-30T10:32:48.777Z,26.73
2022-10-30T10:36:12.571Z,22.98
2022-10-30T10:39:59.182Z,28.02
2022-10-30T10:43:23.072Z,18.60
2022-10-30T10:46:50.117Z,24.25
2022-10-30T10:50:35.451Z,29.32
2022-10-30T10:53:49.475Z,16.50
2022-10-30T10:56:51.634Z,17.37
2022-10-30T11:00:03.995Z,20.02
2022-10-30T11:03:31.016Z,20.92
2022-10-30T11:06:49.641Z,19.82
2022-10-30T11:09:55.253Z,25.15
2022-10-30T11:13:01.632Z,21.85
2022-10-30T11:16:31.516Z,18.98
2022-10-30T11:19:37.524Z,20.08
2022-10-30T11:22:51.333Z,18.55
2022-10-30T11:25:56.912Z,20.25
2022-10-30T11:29:27.791Z,19.85
2022-10-30T11:32:35.854Z,25.95
2022-10-30T11:35:41.756Z,20.60
2022-10-30T11:38:47.246Z,20.80
2022-10-30T11:41:55.529Z,18.82
2022-10-30T11:45:04.973Z,19.92
2022-10-30T11:48:14.116Z,22.40
2022-10-30T11:51:22.025Z,22.37
2022-10-30T11:54:26.078Z,15.43
2022-10-30T11:57:12.268Z,15.55
2022-10-30T12:00:05.907Z,19.35
2022-10-30T12:03:01.240Z,18.02
2022-10-30T12:05:54.690Z,18.10
2022-10-30T12:08:48.525Z,19.62
2022-10-30T12:11:55.664Z,18.50
2022-10-30T12:15:01.091Z,16.82
2022-10-30T12:18:09.888Z,18.25
2022-10-30T12:21:16.348Z,17.87
2022-10-30T12:24:23.134Z,18.17
2022-10-30T12:27:29.838Z,17.27
2022-10-30T12:30:35.692Z,13.20
2022-10-30T12:33:53.741Z,20.82
2022-10-30T12:37:04.166Z,18.02
2022-10-30T12:43:37.784Z,20.50
2022-10-30T12:50:06.824Z,16.40
2022-10-30T12:53:24.234Z,21.25
2022-10-30T12:56:40.647Z,19.20
2022-10-30T12:59:59.432Z,13.48
2022-10-30T13:03:38.780Z,22.67
2022-10-30T13:06:46.669Z,15.38
2022-10-30T13:10:31.171Z,13.30
2022-10-30T13:14:04.156Z,17.07
2022-10-30T13:17:10.101Z,16.73
2022-10-30T13:20:16.469Z,15.85
2022-10-30T13:23:27.941Z,14.58
2022-10-30T13:26:55.506Z,14.93
2022-10-30T13:30:13.249Z,17.57
2022-10-30T13:33:26.001Z,12.23
2022-10-30T13:36:49.001Z,16.73
2022-10-30T13:40:34.027Z,14.83
2022-10-30T13:44:00.892Z,13.72
2022-10-30T13:47:46.246Z,17.48
2022-10-30T13:51:14.150Z,12.23
2022-10-30T13:54:36.642Z,13.98
2022-10-30T13:57:56.432Z,8.18
2022-10-30T14:01:28.778Z,14.43
2022-10-30T14:04:56.426Z,16.67
2022-10-30T14:11:36.245Z,16.70
2022-10-30T14:14:46.169Z,14.05
2022-10-30T14:17:52.173Z,20.50
2022-10-30T14:21:03.786Z,18.25
2022-10-30T14:24:31.713Z,20.05
2022-10-30T14:27:43.369Z,14.68
2022-10-30T14:30:49.262Z,17.12
2022-10-30T14:34:11.501Z,20.35
2022-10-30T14:37:17.227Z,16.90
2022-10-30T14:40:53.004Z,32.60
2022-10-30T14:44:02.989Z,10.93
2022-10-30T14:47:12.384Z,16.52
2022-10-30T14:50:37.437Z,12.25
2022-10-30T14:53:41.177Z,21.27
2022-10-30T14:56:58.407Z,22.82
2022-10-30T14:59:51.200Z,19.65
2022-10-30T15:03:30.084Z,21.25
2022-10-30T15:06:53.855Z,12.95
2022-10-30T15:10:09.990Z,11.40
2022-10-30T15:13:35.384Z,25.92
2022-10-30T15:16:43.017Z,19.80
2022-10-30T15:19:47.780Z,17.67
2022-10-30T15:22:52.795Z,15.20
2022-10-30T15:26:09.812Z,14.68
2022-10-30T15:29:14.169Z,16.62
2022-10-30T15:32:33.324Z,20.02
2022-10-30T15:35:35.250Z,17.45
2022-10-30T15:38:41.893Z,16.57
2022-10-30T15:41:47.544Z,17.60
2022-10-30T15:44:55.903Z,18.17
2022-10-30T15:48:15.442Z,14.65
2022-10-30T15:51:31.440Z,16.77
2022-10-30T15:54:36.076Z,17.27
2022-10-30T15:58:03.002Z,13.53
2022-10-30T16:00:54.410Z,16.62
2022-10-30T16:04:07.156Z,14.43
2022-10-30T16:07:19.330Z,14.30
2022-10-30T16:10:30.822Z,25.45
2022-10-30T16:13:43.494Z,21.77
2022-10-30T16:16:49.316Z,13.90
2022-10-30T16:20:04.075Z,15.45
2022-10-30T16:23:10.255Z,15.68
2022-10-30T16:26:15.476Z,14.38
2022-10-30T16:29:40.400Z,17.90
2022-10-30T16:32:47.490Z,15.30
2022-10-30T16:35:55.737Z,21.02
2022-10-30T16:39:02.159Z,17.80
2022-10-30T16:42:09.086Z,17.45
2022-10-30T16:45:33.788Z,15.28
2022-10-30T16:48:42.361Z,15.93
2022-10-30T16:51:48.041Z,16.73
2022-10-30T16:54:58.783Z,21.00
2022-10-30T16:58:10.052Z,16.05
2022-10-30T17:01:21.016Z,18.57
2022-10-30T17:04:29.767Z,15.30
2022-10-30T17:07:38.287Z,17.27
2022-10-30T17:11:00.958Z,20.08
2022-10-30T17:14:14.026Z,14.38
2022-10-30T17:17:20.198Z,19.35
2022-10-30T17:20:41.466Z,18.62
2022-10-30T17:23:47.143Z,17.00
2022-10-30T17:26:52.919Z,15.60
2022-10-30T17:29:59.301Z,14.60
2022-10-30T17:33:09.142Z,16.77
2022-10-30T17:36:16.279Z,15.60
2022-10-30T17:39:22.419Z,14.28
2022-10-30T17:42:27.500Z,17.62
2022-10-30T17:45:33.244Z,20.82
2022-10-30T17:48:43.771Z,16.85
2022-10-30T17:51:49.112Z,14.70
2022-10-30T17:54:55.945Z,13.03
2022-10-30T17:58:02.764Z,13.30
2022-10-30T18:01:09.455Z,11.97
2022-10-30T18:04:20.867Z,13.60
2022-10-30T18:07:24.791Z,18.70
2022-10-30T18:10:30.815Z,10.95
2022-10-30T18:13:37.018Z,17.25
2022-10-30T18:16:42.976Z,12.40
2022-10-30T18:19:48.687Z,8.40
2022-10-30T18:22:55.520Z,13.50
2022-10-30T18:26:03.180Z,10.70
2022-10-30T18:29:09.608Z,12.07
2022-10-30T18:32:15.600Z,10.23
2022-10-30T18:35:39.971Z,16.55
2022-10-30T18:38:45.095Z,17.15
2022-10-30T18:41:52.772Z,6.25
2022-10-30T18:44:59.081Z,11.60
2022-10-30T18:48:10.627Z,7.33
2022-10-30T18:51:09.990Z,10.78
2022-10-30T18:54:08.915Z,6.65
2022-10-30T18:57:15.062Z,16.00
2022-10-30T19:00:22.938Z,9.70
2022-10-30T19:03:28.371Z,10.18
2022-10-30T19:06:36.311Z,14.63
2022-10-30T19:09:41.870Z,8.20
2022-10-30T19:13:10.955Z,7.83
2022-10-30T19:16:02.987Z,10.18
2022-10-30T19:19:09.569Z,10.82
2022-10-30T19:22:15.591Z,15.45
2022-10-30T19:25:38.456Z,10.38
2022-10-30T19:28:45.407Z,12.07
2022-10-30T19:31:52.603Z,7.10
2022-10-30T19:34:58.621Z,9.35
2022-10-30T19:38:04.886Z,15.53
2022-10-30T19:41:10.563Z,9.90
2022-10-30T19:44:17.117Z,10.40
2022-10-30T19:47:26.923Z,7.42
2022-10-30T19:50:37.087Z,13.13
2022-10-30T19:53:43.280Z,8.68
2022-10-30T19:56:50.944Z,7.30
2022-10-30T19:59:50.228Z,10.40
2022-10-30T20:02:59.424Z,9.75
2022-10-30T20:06:04.569Z,11.10
2022-10-30T20:09:10.256Z,8.98
2022-10-30T20:12:16.914Z,7.78
2022-10-30T20:15:31.494Z,5.17
2022-10-30T20:18:39.424Z,10.05
2022-10-30T20:21:46.058Z,7.80
2022-10-30T20:24:52.883Z,7.42
2022-10-30T20:28:02.394Z,10.82
2022-10-30T20:31:07.394Z,12.23
2022-10-30T20:34:13.144Z,7.22
2022-10-30T20:37:18.623Z,6.28
2022-10-30T20:40:31.062Z,6.12
2022-10-30T20:43:38.979Z,7.50
2022-10-30T20:46:45.346Z,9.83
2022-10-30T20:49:51.250Z,9.28
2022-10-30T20:52:57.803Z,10.45
2022-10-30T20:56:04.376Z,4.90
2022-10-30T20:59:10.673Z,5.83
2022-10-30T21:02:16.611Z,10.23
2022-10-30T21:05:42.814Z,8.83
2022-10-30T21:08:32.964Z,6.92
2022-10-30T21:11:39.785Z,11.03
2022-10-30T21:14:45.013Z,6.30
2022-10-30T21:17:51.060Z,8.25
2022-10-30T21:20:57.896Z,7.47
2022-10-30T21:24:05.023Z,6.42
2022-10-30T21:27:11.252Z,7.35
2022-10-30T21:30:18.262Z,9.65
2022-10-30T21:33:24.256Z,9.80
2022-10-30T21:36:31.490Z,10.63
2022-10-30T21:39:37.104Z,9.00
2022-10-30T21:42:44.007Z,8.05
2022-10-30T21:45:50.796Z,16.62
2022-10-30T21:48:57.533Z,11.10
2022-10-30T21:52:04.289Z,9.98
2022-10-30T21:55:10.048Z,10.40
2022-10-30T21:58:16.427Z,8.20
2022-10-30T22:01:21.891Z,9.40
2022-10-30T22:04:27.543Z,13.40
2022-10-30T22:07:35.011Z,11.93
2022-10-30T22:10:41.327Z,11.03
2022-10-30T22:13:47.257Z,14.68
2022-10-30T22:16:53.472Z,11.00
2022-10-30T22:19:58.932Z,9.50
2022-10-30T22:23:04.975Z,9.83
2022-10-30T22:26:15.918Z,13.22
2022-10-30T22:29:22.321Z,13.05
2022-10-30T22:32:29.829Z,7.80
2022-10-30T22:35:36.115Z,15.15
2022-10-30T22:38:43.171Z,14.80
2022-10-30T22:41:49.264Z,9.63
2022-10-30T22:44:57.004Z,11.48
2022-10-30T22:48:03.330Z,16.10
2022-10-30T22:51:17.080Z,9.55
2022-10-30T22:54:24.584Z,13.98
2022-10-30T22:57:30.060Z,10.90
2022-10-30T23:00:42.167Z,13.05
2022-10-30T23:03:47.975Z,14.07
2022-10-30T23:06:54.202Z,11.63
2022-10-30T23:10:00.621Z,17.25
2022-10-30T23:13:05.847Z,15.03
2022-10-30T23:16:18.174Z,15.50
2022-10-30T23:19:25.570Z,17.60
2022-10-30T23:22:33.420Z,12.00
2022-10-30T23:25:40.311Z,10.98
2022-10-30T23:28:46.755Z,16.05
2022-10-30T23:31:56.675Z,21.95
2022-10-30T23:35:03.143Z,9.53
2022-10-30T23:38:09.896Z,18.80
2022-10-30T23:41:15.553Z,15.35
2022-10-30T23:44:24.849Z,11.00
2022-10-30T23:47:30.760Z,12.35
2022-10-30T23:50:36.195Z,15.80
2022-10-30T23:53:42.169Z,14.90
2022-10-30T23:56:48.014Z,12.68
2022-10-30T23:59:54.648Z,11.22
